Airfield :
LOGIN :

Register | Disclaimer

   EN    FR    IT 

 










Legend :    VFR   Marginal VFR   IFR   Intensive IFR   Very Intensive IFR
Visi :
Ceiling :
>= 8 km
>= 3000ft
5 to 8 km
1000 to 3000 ft
1500m to 5 km
500 to 1000 ft
800 to 1500m
200 to 500 ft
< 800m
< 200 ft
Symbols :   Thunderstorms  Fog  Heavy snow  Heavy precipitations  Wind > 20 kt
SIGMETs :     Misc.  Thunderstorms  Icing  Turbulence  Mountain Waves  Volcanic Ashes






- Airport Elevation : 1947 ft
- IATA code : OBF


EDMO - Oberpfaffenhofen

CURRENT METAR :
  • 121720Z 26006KT 7000 -RA FEW008 SCT023 OVC043 09/08 Q1011

EXPIRED METARs :
  • 121650Z 24007KT 9999 -RA SCT007 BKN011 OVC041 09/08 Q1011
  • 121620Z 25009KT 9999 -RA BKN009 OVC041 09/08 Q1011
  • 121550Z 25008KT 9999 -RA BKN007 OVC018 09/08 Q1011
  • 121520Z 25009KT 9999 -RA FEW008 OVC014 09/08 Q1011
  • 121450Z 25009KT 220V280 9999 -RA OVC008 10/08 Q1011

TAF TAF EDMO
Valid from the 12 at 18:00 until the 13 at 03:00 UTC


121700Z 1218/1303 23005KT 9999 BKN040
TEMPO 1218/1221 RA BKN008
TEMPO 1221/1303 BKN005



MET'MAP, your aeronautical weather chart ! - Copyright ORBIFLY December 2007 - Disclaimer

ORBIFLY MET'MAP TEAM :

Programming & Development : Alexandra Zaïnal
Concept & original design : Baudouin d'Aumeries
Assistance for programming : Marc-Olivier Méhu
Technical & hardware support : Manuel Goepfert

Contact : metmap@orbifly.com




SOURCES & CREDITS :

   NOAA